createdAt,value
2023-05-05T00:00:39.996Z,641.1539
2023-05-05T00:01:42.582Z,644.0769
2023-05-05T00:02:45.289Z,642.3846
2023-05-05T00:03:47.955Z,641.4615
2023-05-05T00:04:50.440Z,644.0000
2023-05-05T00:05:53.019Z,642.6154
2023-05-05T00:06:55.620Z,645.2308
2023-05-05T00:07:58.224Z,640.3846
2023-05-05T00:09:00.845Z,655.0000
2023-05-05T00:10:03.435Z,655.3846
2023-05-05T00:11:06.045Z,662.8461
2023-05-05T00:12:08.632Z,658.5385
2023-05-05T00:13:11.387Z,656.2308
2023-05-05T00:14:13.857Z,653.3077
2023-05-05T00:15:16.464Z,648.1539
2023-05-05T00:16:19.040Z,644.0769
2023-05-05T00:17:21.695Z,642.1539
2023-05-05T00:18:24.256Z,641.1539
2023-05-05T00:19:26.881Z,643.9231
2023-05-05T00:20:29.557Z,650.0769
2023-05-05T00:21:32.094Z,657.0000
2023-05-05T00:22:34.679Z,664.3077
2023-05-05T00:23:37.308Z,665.9231
2023-05-05T00:24:39.900Z,665.4615
2023-05-05T00:25:42.531Z,660.0769
2023-05-05T00:26:45.107Z,663.8461
2023-05-05T00:27:47.739Z,659.8461
2023-05-05T00:28:50.341Z,661.9231
2023-05-05T00:29:52.946Z,663.2308
2023-05-05T00:30:55.533Z,665.2308
2023-05-05T00:31:58.179Z,665.5385
2023-05-05T00:33:00.778Z,665.5385
2023-05-05T00:34:03.369Z,665.2308
2023-05-05T00:35:05.942Z,663.0769
2023-05-05T00:36:08.580Z,662.5385
2023-05-05T00:37:11.167Z,663.1539
2023-05-05T00:38:13.791Z,667.6923
2023-05-05T00:39:16.359Z,673.5385
2023-05-05T00:40:18.989Z,678.5385
2023-05-05T00:41:21.619Z,684.2308
2023-05-05T00:42:24.189Z,686.0769
2023-05-05T00:43:26.771Z,685.6154
2023-05-05T00:44:29.406Z,687.8461
2023-05-05T00:45:31.984Z,690.7692
2023-05-05T00:46:34.616Z,689.0000
2023-05-05T00:47:37.240Z,685.3846
2023-05-05T00:48:39.803Z,683.3846
2023-05-05T00:49:42.377Z,676.3077
2023-05-05T00:50:45.027Z,671.0000
2023-05-05T00:51:47.592Z,671.2308
2023-05-05T00:52:50.219Z,669.8461
2023-05-05T00:53:52.800Z,672.6154
2023-05-05T00:54:55.437Z,673.7692
2023-05-05T00:55:58.001Z,673.1539
2023-05-05T00:57:00.632Z,672.1539
2023-05-05T00:58:03.219Z,675.9231
2023-05-05T00:59:05.843Z,679.7692
2023-05-05T01:00:08.790Z,682.2308
2023-05-05T01:01:11.168Z,681.0000
2023-05-05T01:02:13.618Z,678.6154
2023-05-05T01:03:16.303Z,674.6923
2023-05-05T01:04:18.825Z,670.2308
2023-05-05T01:05:21.438Z,670.6154
2023-05-05T01:06:24.026Z,669.3846
2023-05-05T01:07:26.661Z,667.5385
2023-05-05T01:08:29.243Z,664.9231
2023-05-05T01:09:31.859Z,664.4615
2023-05-05T01:10:34.429Z,662.6154
2023-05-05T01:11:37.047Z,664.9231
2023-05-05T01:12:39.650Z,669.1539
2023-05-05T01:13:42.254Z,673.6154
2023-05-05T01:14:44.826Z,680.5385
2023-05-05T01:15:47.470Z,685.0000
2023-05-05T01:16:50.035Z,686.2308
2023-05-05T01:17:52.751Z,682.6154
2023-05-05T01:18:55.263Z,685.2308
2023-05-05T01:19:57.865Z,677.0000
2023-05-05T01:21:00.481Z,681.1539
2023-05-05T01:22:03.067Z,673.6923
2023-05-05T01:23:05.659Z,673.3846
2023-05-05T01:24:08.313Z,675.1539
2023-05-05T01:25:10.867Z,672.3077
2023-05-05T01:26:14.276Z,671.0000
2023-05-05T01:27:16.073Z,674.6923
2023-05-05T01:28:18.693Z,680.2308
2023-05-05T01:29:21.312Z,678.7692
2023-05-05T01:30:23.907Z,673.9231
2023-05-05T01:31:26.507Z,670.5385
2023-05-05T01:32:29.213Z,666.7692
2023-05-05T01:33:31.678Z,666.2308
2023-05-05T01:34:34.320Z,667.0000
2023-05-05T01:35:36.880Z,666.8461
2023-05-05T01:36:39.519Z,666.6923
2023-05-05T01:37:42.095Z,665.3846
2023-05-05T01:38:44.717Z,660.9231
2023-05-05T01:39:47.305Z,658.6154
2023-05-05T01:40:49.950Z,654.6154
2023-05-05T01:41:52.508Z,650.3077
2023-05-05T01:42:55.130Z,647.5385
2023-05-05T01:45:31.978Z,632.0714
2023-05-05T01:46:34.520Z,629.9231
2023-05-05T01:47:37.168Z,633.6923
2023-05-05T01:48:41.761Z,633.2308
2023-05-05T01:49:42.351Z,633.6154
2023-05-05T01:50:44.932Z,634.3077
2023-05-05T01:51:47.850Z,635.0000
2023-05-05T01:52:50.169Z,635.9231
2023-05-05T01:53:52.767Z,636.1539
2023-05-05T01:54:55.358Z,634.5385
2023-05-05T01:55:57.993Z,634.0769
2023-05-05T01:57:00.568Z,635.8461
2023-05-05T01:58:03.289Z,639.3846
2023-05-05T01:59:05.752Z,643.7692
2023-05-05T02:00:08.657Z,644.6154
2023-05-05T02:01:11.091Z,649.1539
2023-05-05T02:02:13.617Z,656.7692
2023-05-05T02:03:16.345Z,661.2308
2023-05-05T02:04:18.801Z,667.4615
2023-05-05T02:05:21.385Z,665.0769
2023-05-05T02:06:24.011Z,666.3077
2023-05-05T02:07:26.594Z,670.0000
2023-05-05T02:08:29.223Z,669.9231
2023-05-05T02:09:31.798Z,667.0769
2023-05-05T02:10:34.437Z,667.2308
2023-05-05T02:11:37.016Z,667.6923
2023-05-05T02:12:39.696Z,668.5385
2023-05-05T02:13:42.277Z,668.1539
2023-05-05T02:14:44.867Z,668.2308
2023-05-05T02:15:47.433Z,666.9231
2023-05-05T02:16:50.052Z,666.0769
2023-05-05T02:17:52.676Z,666.8461
2023-05-05T02:18:55.256Z,666.8461
2023-05-05T02:19:57.833Z,667.6154
2023-05-05T02:21:00.561Z,667.3846
2023-05-05T02:23:42.086Z,655.5000
2023-05-05T02:24:44.674Z,653.0769
2023-05-05T02:25:47.302Z,655.0000
2023-05-05T02:26:49.891Z,658.2308
2023-05-05T02:27:52.524Z,656.7692
2023-05-05T02:28:55.104Z,654.0000
2023-05-05T02:29:57.859Z,656.6154
2023-05-05T02:31:00.350Z,657.6154
2023-05-05T02:32:02.944Z,656.3846
2023-05-05T02:33:05.602Z,653.6154
2023-05-05T02:34:08.132Z,654.8461
2023-05-05T02:35:10.709Z,652.0769
2023-05-05T02:36:13.550Z,650.1539
2023-05-05T02:37:15.920Z,651.6923
2023-05-05T02:38:18.542Z,682.8461
2023-05-05T02:39:21.130Z,681.3846
2023-05-05T02:40:23.751Z,680.6923
2023-05-05T02:41:26.324Z,671.8461
2023-05-05T02:42:28.959Z,656.0769
2023-05-05T02:43:31.565Z,649.1539
2023-05-05T02:44:34.178Z,653.3846
2023-05-05T02:45:36.749Z,656.3846
2023-05-05T02:46:39.403Z,651.8461
2023-05-05T02:47:41.986Z,652.7692
2023-05-05T02:50:04.355Z,668.6429
2023-05-05T02:51:06.924Z,671.0769
2023-05-05T02:52:09.563Z,666.2308
2023-05-05T02:53:12.242Z,659.3846
2023-05-05T02:54:14.796Z,652.3846
2023-05-05T02:57:10.864Z,653.2143
2023-05-05T02:58:13.437Z,649.9231
2023-05-05T02:59:16.428Z,646.8461
2023-05-05T03:00:18.651Z,638.3846
2023-05-05T03:01:21.317Z,643.3846
2023-05-05T03:02:23.905Z,635.0769
2023-05-05T03:03:26.510Z,629.7692
2023-05-05T03:04:29.095Z,631.8461
2023-05-05T03:05:31.674Z,631.7692
2023-05-05T03:06:34.308Z,637.0000
2023-05-05T03:07:36.888Z,632.6923
2023-05-05T03:08:39.500Z,637.0000
2023-05-05T03:09:42.086Z,639.9231
2023-05-05T03:10:44.718Z,641.0769
2023-05-05T03:11:47.298Z,644.1539
2023-05-05T03:12:49.933Z,646.6154
2023-05-05T03:13:52.495Z,644.4615
2023-05-05T03:14:55.161Z,643.6154
2023-05-05T03:15:57.734Z,644.0769
2023-05-05T03:17:00.319Z,641.4615
2023-05-05T03:18:02.987Z,639.2308
2023-05-05T03:19:05.520Z,640.2308
2023-05-05T03:20:08.353Z,641.8461
2023-05-05T03:21:10.706Z,641.5385
2023-05-05T03:24:06.764Z,635.3571
2023-05-05T03:25:09.396Z,633.0769
2023-05-05T03:26:12.000Z,628.9231
2023-05-05T03:27:14.606Z,628.3846
2023-05-05T03:28:17.192Z,627.4615
2023-05-05T03:29:19.830Z,632.2308
2023-05-05T03:30:22.404Z,630.3846
2023-05-05T03:31:25.047Z,627.8461
2023-05-05T03:32:27.622Z,626.5385
2023-05-05T03:33:30.235Z,630.9231
2023-05-05T03:34:32.819Z,637.8461
2023-05-05T03:35:35.442Z,640.7692
2023-05-05T03:36:38.037Z,639.6154
2023-05-05T03:37:40.658Z,639.0769
2023-05-05T03:38:43.220Z,637.7692
2023-05-05T03:39:45.853Z,637.5385
2023-05-05T03:40:48.430Z,637.6923
2023-05-05T03:41:51.061Z,635.1539
2023-05-05T03:42:53.680Z,639.8461
2023-05-05T03:43:56.280Z,640.4615
2023-05-05T03:44:58.854Z,642.3077
2023-05-05T03:46:01.510Z,648.3846
2023-05-05T03:47:04.049Z,646.8461
2023-05-05T03:48:06.738Z,647.5385
2023-05-05T03:49:09.269Z,643.4615
2023-05-05T03:50:11.896Z,639.5385
2023-05-05T03:51:14.467Z,634.5385
2023-05-05T03:52:17.087Z,633.6923
2023-05-05T03:53:19.667Z,639.0000
2023-05-05T03:54:22.309Z,639.6923
2023-05-05T03:55:24.893Z,635.6923
2023-05-05T03:56:27.507Z,634.7692
2023-05-05T03:57:30.077Z,639.3077
2023-05-05T03:58:32.725Z,642.5385
2023-05-05T04:00:45.446Z,631.3571
2023-05-05T04:01:48.017Z,630.3077
2023-05-05T04:02:50.730Z,631.4615
2023-05-05T04:03:53.321Z,635.7692
2023-05-05T04:04:55.926Z,639.3846
2023-05-05T04:05:58.450Z,641.0000
2023-05-05T04:07:01.070Z,634.3077
2023-05-05T04:08:03.662Z,631.2308
2023-05-05T04:10:40.467Z,633.2857
2023-05-05T04:11:43.247Z,635.9231
2023-05-05T04:12:45.692Z,638.1539
2023-05-05T04:13:48.322Z,636.6923
2023-05-05T04:14:50.898Z,633.6154
2023-05-05T04:15:53.574Z,632.5385
2023-05-05T04:16:56.111Z,632.3846
2023-05-05T04:17:58.819Z,632.0769
2023-05-05T04:19:01.329Z,635.3077
2023-05-05T04:20:03.946Z,635.9231
2023-05-05T04:21:06.563Z,640.3846
2023-05-05T04:22:09.212Z,640.6154
2023-05-05T04:23:11.736Z,635.0000
2023-05-05T04:24:14.362Z,634.0769
2023-05-05T04:25:16.945Z,633.3077
2023-05-05T04:26:19.578Z,642.7692
2023-05-05T04:27:22.141Z,641.2308
2023-05-05T04:28:24.784Z,635.6923
2023-05-05T04:29:27.365Z,636.7692
2023-05-05T04:30:29.986Z,632.1539
2023-05-05T04:31:32.610Z,632.4615
2023-05-05T04:32:35.287Z,632.1539
2023-05-05T04:33:37.789Z,634.0769
2023-05-05T04:34:40.412Z,635.4615
2023-05-05T04:35:42.985Z,636.6923
2023-05-05T04:36:45.711Z,643.1539
2023-05-05T04:37:48.190Z,632.4615
2023-05-05T04:38:50.864Z,635.1539
2023-05-05T04:39:53.412Z,637.7692
2023-05-05T04:40:56.028Z,637.8461
2023-05-05T04:41:58.602Z,639.9231
2023-05-05T04:43:01.241Z,643.1539
2023-05-05T04:44:03.805Z,641.3077
2023-05-05T04:45:06.833Z,640.6923
2023-05-05T04:46:09.058Z,639.4615
2023-05-05T04:47:13.261Z,641.2308
2023-05-05T04:48:14.549Z,640.7692
2023-05-05T04:49:16.849Z,645.5385
2023-05-05T04:50:19.425Z,642.0000
2023-05-05T04:51:22.054Z,639.0000
2023-05-05T04:54:08.472Z,653.5000
2023-05-05T04:55:11.056Z,652.2308
2023-05-05T04:56:13.673Z,646.6154
2023-05-05T04:57:16.264Z,644.3846
2023-05-05T04:58:18.892Z,641.1539
2023-05-05T04:59:21.493Z,639.5385
2023-05-05T05:00:24.112Z,641.0000
2023-05-05T05:01:26.720Z,643.0769
2023-05-05T05:02:29.361Z,647.2308
2023-05-05T05:03:32.070Z,651.0769
2023-05-05T05:04:34.512Z,648.5385
2023-05-05T05:05:37.207Z,648.3846
2023-05-05T05:06:39.701Z,650.7692
2023-05-05T05:07:42.274Z,650.6154
2023-05-05T05:08:44.892Z,649.7692
2023-05-05T05:09:47.480Z,649.7692
2023-05-05T05:10:50.093Z,651.2308
2023-05-05T05:11:52.711Z,654.2308
2023-05-05T05:12:55.358Z,656.3846
2023-05-05T05:13:57.875Z,654.1539
2023-05-05T05:15:00.517Z,652.4615
2023-05-05T05:16:03.091Z,652.7692
2023-05-05T05:17:05.694Z,651.3846
2023-05-05T05:18:08.325Z,650.3846
2023-05-05T05:19:10.896Z,648.0000
2023-05-05T05:20:13.473Z,646.0000
2023-05-05T05:21:16.358Z,647.1539
2023-05-05T05:22:18.679Z,646.0000
2023-05-05T05:23:21.302Z,650.1539
2023-05-05T05:24:23.864Z,649.9231
2023-05-05T05:25:26.493Z,649.0000
2023-05-05T05:26:29.068Z,659.8461
2023-05-05T05:27:31.717Z,653.6154
2023-05-05T05:28:34.333Z,653.0000
2023-05-05T05:29:36.900Z,647.0769
2023-05-05T05:30:39.490Z,646.9231
2023-05-05T05:31:42.169Z,639.9231
2023-05-05T05:32:44.710Z,640.6923
2023-05-05T05:33:47.297Z,640.5385
2023-05-05T05:34:49.868Z,641.4615
2023-05-05T05:35:52.775Z,640.6923
2023-05-05T05:36:55.091Z,641.0000
2023-05-05T05:37:57.699Z,638.3846
2023-05-05T05:39:00.265Z,632.6154
2023-05-05T05:40:02.897Z,636.7692
2023-05-05T05:41:05.463Z,636.3077
2023-05-05T05:42:08.071Z,631.3077
2023-05-05T05:43:10.655Z,640.6154
2023-05-05T05:44:13.292Z,642.2308
2023-05-05T05:45:16.166Z,640.1539
2023-05-05T05:46:18.486Z,638.9231
2023-05-05T05:47:21.035Z,641.0769
2023-05-05T05:48:23.675Z,630.8461
2023-05-05T05:49:26.248Z,629.9231
2023-05-05T05:50:28.870Z,629.2308
2023-05-05T05:51:31.446Z,629.3077
2023-05-05T05:52:34.055Z,636.5385
2023-05-05T05:53:36.649Z,635.6923
2023-05-05T05:54:39.253Z,637.9231
2023-05-05T05:55:41.880Z,634.3077
2023-05-05T05:56:44.460Z,634.7692
2023-05-05T05:57:47.023Z,633.4615
2023-05-05T05:59:54.890Z,631.5000
2023-05-05T06:00:57.508Z,627.2308
2023-05-05T06:02:00.123Z,630.1539
2023-05-05T06:03:02.813Z,623.2308
2023-05-05T06:04:05.341Z,627.2308
2023-05-05T06:05:07.922Z,629.8461
2023-05-05T06:06:10.479Z,630.6154
2023-05-05T06:07:13.100Z,622.9231
2023-05-05T06:08:15.975Z,620.5385
2023-05-05T06:09:18.322Z,625.3846
2023-05-05T06:10:27.981Z,626.4615
2023-05-05T06:11:23.515Z,623.0000
2023-05-05T06:12:26.088Z,620.9231
2023-05-05T06:13:28.721Z,623.3077
2023-05-05T06:14:31.274Z,629.4615
2023-05-05T06:15:33.916Z,635.0000
2023-05-05T06:16:36.478Z,634.7692
2023-05-05T06:17:39.127Z,632.4615
2023-05-05T06:18:41.704Z,627.5385
2023-05-05T06:19:44.295Z,622.3077
2023-05-05T06:20:46.857Z,619.3846
2023-05-05T06:21:49.479Z,621.3846
2023-05-05T06:22:52.085Z,621.9231
2023-05-05T06:23:54.699Z,621.0000
2023-05-05T06:24:57.250Z,620.3846
2023-05-05T06:25:59.867Z,615.0769
2023-05-05T06:27:02.446Z,619.3077
2023-05-05T06:28:05.128Z,616.7692
2023-05-05T06:29:07.621Z,615.3846
2023-05-05T06:30:10.502Z,620.2308
2023-05-05T06:31:12.877Z,620.7692
2023-05-05T06:32:15.438Z,621.5385
2023-05-05T06:33:18.013Z,620.5385
2023-05-05T06:34:20.628Z,623.6923
2023-05-05T06:35:23.203Z,623.4615
2023-05-05T06:36:25.876Z,624.4615
2023-05-05T06:37:28.372Z,626.4615
2023-05-05T06:38:30.989Z,624.0000
2023-05-05T06:39:33.554Z,625.3077
2023-05-05T06:40:36.175Z,624.5385
2023-05-05T06:41:38.782Z,623.6923
2023-05-05T06:42:41.370Z,623.0000
2023-05-05T06:43:43.950Z,618.7692
2023-05-05T06:44:46.545Z,620.0000
2023-05-05T06:45:49.350Z,614.5385
2023-05-05T06:46:51.773Z,618.6923
2023-05-05T06:47:54.328Z,622.2308
2023-05-05T06:48:56.905Z,619.0000
2023-05-05T06:49:59.474Z,620.0769
2023-05-05T06:51:02.927Z,619.6154
2023-05-05T06:52:04.661Z,619.5385
2023-05-05T06:53:07.293Z,621.6923
2023-05-05T06:54:09.841Z,621.0000
2023-05-05T06:55:12.479Z,621.0000
2023-05-05T06:56:15.017Z,619.8461
2023-05-05T06:57:17.641Z,627.0000
2023-05-05T06:58:20.209Z,622.1539
2023-05-05T06:59:23.109Z,625.6923
2023-05-05T07:00:25.389Z,621.3846
2023-05-05T07:01:28.067Z,615.0000
2023-05-05T07:02:30.574Z,608.7692
2023-05-05T07:03:33.190Z,604.8461
2023-05-05T07:04:35.741Z,614.3846
2023-05-05T07:05:38.365Z,612.0769
2023-05-05T07:06:40.931Z,607.1539
2023-05-05T07:07:43.532Z,609.2308
2023-05-05T07:08:46.100Z,617.6154
2023-05-05T07:09:48.706Z,620.2308
2023-05-05T07:10:51.281Z,620.5385
2023-05-05T07:11:53.887Z,619.3846
2023-05-05T07:12:56.601Z,620.7692
2023-05-05T07:13:59.071Z,612.3846
2023-05-05T07:15:09.304Z,609.9231
2023-05-05T07:16:04.299Z,615.3077
2023-05-05T07:17:06.802Z,613.9231
2023-05-05T07:18:09.914Z,616.9231
2023-05-05T07:19:11.990Z,618.8461
2023-05-05T07:20:14.602Z,619.4615
2023-05-05T07:21:17.175Z,619.0000
2023-05-05T07:22:19.813Z,619.3077
2023-05-05T07:23:22.334Z,622.1539
2023-05-05T07:24:24.952Z,623.3077
2023-05-05T07:25:27.515Z,622.3846
2023-05-05T07:26:30.150Z,621.4615
2023-05-05T07:27:32.703Z,618.2308
2023-05-05T07:28:35.322Z,619.0000
2023-05-05T07:29:37.878Z,618.3077
2023-05-05T07:30:40.498Z,620.4615
2023-05-05T07:31:43.087Z,622.9231
2023-05-05T07:32:45.720Z,619.3077
2023-05-05T07:33:48.213Z,614.0000
2023-05-05T07:34:50.844Z,614.2308
2023-05-05T07:35:53.400Z,620.1539
2023-05-05T07:36:56.003Z,623.4615
2023-05-05T07:37:58.568Z,623.3077
2023-05-05T07:39:01.177Z,621.6154
2023-05-05T07:40:03.746Z,628.2308
2023-05-05T07:41:06.362Z,627.3846
2023-05-05T07:42:08.909Z,621.5385
2023-05-05T07:43:11.518Z,620.4615
2023-05-05T07:44:14.090Z,620.6154
2023-05-05T07:45:17.193Z,618.9231
2023-05-05T07:46:19.402Z,618.0769
2023-05-05T07:47:22.028Z,614.0769
2023-05-05T07:48:24.436Z,613.0000
2023-05-05T07:49:27.033Z,612.3077
2023-05-05T07:50:29.893Z,610.8461
2023-05-05T07:51:33.953Z,604.2308
2023-05-05T07:52:46.630Z,602.1539
2023-05-05T07:53:37.392Z,605.0769
2023-05-05T07:54:39.950Z,606.4615
2023-05-05T07:55:42.553Z,611.7692
2023-05-05T07:56:45.117Z,613.4615
2023-05-05T07:59:41.018Z,616.5000
2023-05-05T08:00:43.632Z,608.0769
2023-05-05T08:01:46.277Z,609.1539
2023-05-05T08:02:48.900Z,611.3077
2023-05-05T08:03:51.469Z,607.3846
2023-05-05T08:04:53.992Z,604.5385
2023-05-05T08:05:56.556Z,607.7692
2023-05-05T08:06:59.167Z,606.4615
2023-05-05T08:09:02.339Z,616.7857
2023-05-05T08:10:04.929Z,611.0000
2023-05-05T08:11:07.515Z,609.6923
2023-05-05T08:12:10.088Z,605.5385
2023-05-05T08:13:12.819Z,604.4615
2023-05-05T08:14:15.284Z,604.8461
2023-05-05T08:15:17.882Z,605.3846
2023-05-05T08:16:20.537Z,609.5385
2023-05-05T08:17:23.205Z,611.3846
2023-05-05T08:18:25.629Z,610.3846
2023-05-05T08:19:29.491Z,611.1539
2023-05-05T08:20:30.820Z,611.0000
2023-05-05T08:21:33.440Z,614.6923
2023-05-05T08:22:35.982Z,612.5385
2023-05-05T08:23:38.600Z,612.7692
2023-05-05T08:24:41.159Z,608.0000
2023-05-05T08:25:43.797Z,607.6923
2023-05-05T08:26:46.365Z,606.0769
2023-05-05T08:27:48.943Z,608.1539
2023-05-05T08:28:51.505Z,608.3077
2023-05-05T08:29:54.119Z,610.3077
2023-05-05T08:30:56.673Z,610.6923
2023-05-05T08:31:59.326Z,607.4615
2023-05-05T08:33:02.094Z,605.1539
2023-05-05T08:34:04.474Z,603.5385
2023-05-05T08:35:07.705Z,605.6154
2023-05-05T08:36:09.642Z,606.6923
2023-05-05T08:37:12.219Z,607.6923
2023-05-05T08:38:14.814Z,611.3846
2023-05-05T08:39:17.583Z,611.8461
2023-05-05T08:40:19.983Z,611.8461
2023-05-05T08:41:22.559Z,615.4615
2023-05-05T08:42:36.374Z,615.3846
2023-05-05T08:43:27.710Z,618.1539
2023-05-05T08:44:30.361Z,618.4615
2023-05-05T08:46:38.068Z,605.0714
2023-05-05T08:47:40.686Z,596.1539
2023-05-05T08:48:43.282Z,590.9231
2023-05-05T08:49:45.812Z,592.0000
2023-05-05T08:50:48.415Z,595.4615
2023-05-05T08:51:50.959Z,600.0000
2023-05-05T08:52:53.622Z,601.0000
2023-05-05T08:53:56.152Z,605.0000
2023-05-05T08:54:58.733Z,601.1539
2023-05-05T08:56:01.299Z,600.3846
2023-05-05T08:57:03.932Z,608.3846
2023-05-05T08:58:06.482Z,616.5385
2023-05-05T08:59:09.092Z,623.5385
2023-05-05T09:00:11.647Z,622.3077
2023-05-05T09:01:14.607Z,617.0769
2023-05-05T09:02:16.910Z,613.3846
2023-05-05T09:03:19.482Z,610.3077
2023-05-05T09:04:22.089Z,607.2308
2023-05-05T09:05:24.620Z,601.1539
2023-05-05T09:06:27.171Z,600.6923
2023-05-05T09:07:29.789Z,598.3846
2023-05-05T09:08:32.360Z,594.2308
2023-05-05T09:09:34.962Z,589.3846
2023-05-05T09:10:37.526Z,590.8461
2023-05-05T09:11:40.123Z,592.1539
2023-05-05T09:12:42.731Z,593.0769
2023-05-05T09:13:45.284Z,593.3846
2023-05-05T09:14:47.854Z,594.3077
2023-05-05T09:15:50.464Z,595.7692
2023-05-05T09:16:53.061Z,594.8461
2023-05-05T09:17:55.673Z,598.3077
2023-05-05T09:18:58.204Z,598.1539
2023-05-05T09:20:00.857Z,595.8461
2023-05-05T09:21:03.381Z,594.3077
2023-05-05T09:22:06.001Z,593.6154
2023-05-05T09:23:08.579Z,590.5385
2023-05-05T09:24:11.176Z,590.6154
2023-05-05T09:25:13.730Z,592.6154
2023-05-05T09:26:16.360Z,591.1539
2023-05-05T09:27:19.473Z,594.6154
2023-05-05T09:28:21.533Z,593.5385
2023-05-05T09:29:24.073Z,595.5385
2023-05-05T09:30:26.687Z,594.5385
2023-05-05T09:31:29.314Z,598.2308
2023-05-05T09:32:31.844Z,597.2308
2023-05-05T09:33:34.409Z,595.3077
2023-05-05T09:34:37.029Z,593.9231
2023-05-05T09:35:39.684Z,591.9231
2023-05-05T09:36:42.264Z,588.1539
2023-05-05T09:37:44.760Z,590.3077
2023-05-05T09:38:47.357Z,597.5385
2023-05-05T09:39:49.926Z,594.5385
2023-05-05T09:40:52.527Z,594.1539
2023-05-05T09:41:55.093Z,596.2308
2023-05-05T09:42:57.698Z,594.4615
2023-05-05T09:44:00.257Z,592.5385
2023-05-05T09:45:02.868Z,595.3846
2023-05-05T09:46:05.459Z,596.0769
2023-05-05T09:47:18.098Z,594.0769
2023-05-05T09:48:10.621Z,600.1539
2023-05-05T09:49:13.219Z,585.8461
2023-05-05T09:50:15.777Z,577.1539
2023-05-05T09:51:18.574Z,580.0000
2023-05-05T09:52:20.949Z,586.8461
2023-05-05T09:53:23.559Z,588.8461
2023-05-05T09:54:26.129Z,592.6154
2023-05-05T09:55:28.720Z,593.3846
2023-05-05T09:56:31.284Z,594.5385
2023-05-05T09:57:33.902Z,596.3077
2023-05-05T09:58:36.568Z,596.5385
2023-05-05T09:59:39.074Z,598.0769
2023-05-05T10:00:41.629Z,590.0000
2023-05-05T10:01:44.267Z,584.9231
2023-05-05T10:02:46.834Z,587.6923
2023-05-05T10:03:49.411Z,586.0769
2023-05-05T10:04:52.075Z,589.0000
2023-05-05T10:05:54.591Z,593.1539
2023-05-05T10:06:57.266Z,590.3846
2023-05-05T10:07:59.746Z,595.1539
2023-05-05T10:09:02.311Z,596.0769
2023-05-05T10:10:05.133Z,592.5385
2023-05-05T10:11:07.493Z,589.2308
2023-05-05T10:12:10.102Z,581.8461
2023-05-05T10:13:12.755Z,587.3077
2023-05-05T10:14:15.255Z,590.9231
2023-05-05T10:15:17.823Z,591.0769
2023-05-05T10:16:20.494Z,592.0769
2023-05-05T10:17:22.984Z,595.4615
2023-05-05T10:18:25.730Z,595.6923
2023-05-05T10:19:28.137Z,593.3077
2023-05-05T10:20:30.750Z,599.1539
2023-05-05T10:21:33.304Z,610.0000
2023-05-05T10:22:35.978Z,605.5385
2023-05-05T10:23:38.468Z,599.5385
2023-05-05T10:24:41.074Z,600.1539
2023-05-05T10:26:39.582Z,588.9286
2023-05-05T10:27:42.560Z,586.7692
2023-05-05T10:28:44.567Z,585.5385
2023-05-05T10:29:47.121Z,586.6154
2023-05-05T10:30:49.727Z,582.0769
2023-05-05T10:31:52.317Z,582.1539
2023-05-05T10:33:07.961Z,584.1539
2023-05-05T10:33:57.480Z,585.3846
2023-05-05T10:35:00.058Z,588.1539
2023-05-05T10:36:03.681Z,590.3077
2023-05-05T10:37:07.281Z,589.6923
2023-05-05T10:38:07.849Z,590.0000
2023-05-05T10:39:12.445Z,588.6923
2023-05-05T10:40:12.945Z,586.0000
2023-05-05T10:41:15.557Z,586.6154
2023-05-05T10:42:18.693Z,585.3077
2023-05-05T10:43:20.710Z,578.3846
2023-05-05T10:44:23.261Z,583.2308
2023-05-05T10:45:27.996Z,574.3077
2023-05-05T10:46:28.475Z,598.7692
2023-05-05T10:47:33.084Z,589.1539
2023-05-05T10:48:33.626Z,591.9231
2023-05-05T10:49:36.204Z,588.0769
2023-05-05T10:50:38.771Z,585.0769
2023-05-05T10:51:41.462Z,582.0769
2023-05-05T10:52:43.959Z,586.7692
2023-05-05T10:53:46.667Z,585.0769
2023-05-05T10:54:49.117Z,586.9231
2023-05-05T10:55:51.719Z,588.3077
2023-05-05T10:56:54.289Z,591.0000
2023-05-05T10:57:56.894Z,589.0769
2023-05-05T10:59:00.773Z,595.7692
2023-05-05T11:00:02.070Z,593.3077
2023-05-05T11:01:04.669Z,590.2308
2023-05-05T11:02:07.238Z,586.3077
2023-05-05T11:03:09.818Z,587.3846
2023-05-05T11:04:12.416Z,585.6923
2023-05-05T11:05:15.007Z,588.8461
2023-05-05T11:06:17.545Z,586.1539
2023-05-05T11:07:20.299Z,588.3077
2023-05-05T11:08:22.721Z,589.2308
2023-05-05T11:09:25.398Z,588.5385
2023-05-05T11:10:27.880Z,586.7692
2023-05-05T11:11:30.444Z,586.7692
2023-05-05T11:12:33.109Z,584.0000
2023-05-05T11:13:35.619Z,582.7692
2023-05-05T11:14:38.221Z,587.5385
2023-05-05T11:15:40.792Z,590.6923
2023-05-05T11:16:43.438Z,590.3077
2023-05-05T11:17:46.030Z,587.0769
2023-05-05T11:18:48.577Z,583.6923
2023-05-05T11:19:51.140Z,586.1539
2023-05-05T11:20:53.741Z,585.6923
2023-05-05T11:21:56.303Z,582.6154
2023-05-05T11:22:58.922Z,579.2308
2023-05-05T11:24:01.476Z,576.2308
2023-05-05T11:25:04.191Z,578.2308
2023-05-05T11:26:06.643Z,579.0769
2023-05-05T11:27:09.245Z,578.9231
2023-05-05T11:28:11.842Z,579.6923
2023-05-05T11:29:14.831Z,579.0000
2023-05-05T11:30:16.960Z,577.6154
2023-05-05T11:31:19.946Z,575.6923
2023-05-05T11:32:22.129Z,575.9231
2023-05-05T11:33:24.746Z,578.0769
2023-05-05T11:34:27.305Z,576.9231
2023-05-05T11:35:29.901Z,571.0769
2023-05-05T11:36:32.460Z,571.6154
2023-05-05T11:37:35.061Z,569.6923
2023-05-05T11:38:37.623Z,570.8461
2023-05-05T11:39:40.222Z,570.9231
2023-05-05T11:40:42.853Z,574.3846
2023-05-05T11:41:45.385Z,573.8461
2023-05-05T11:42:47.935Z,574.0000
2023-05-05T11:43:50.542Z,574.3846
2023-05-05T11:44:53.105Z,567.0769
2023-05-05T11:45:55.754Z,570.1539
2023-05-05T11:47:01.068Z,566.5385
2023-05-05T11:48:00.911Z,566.7692
2023-05-05T11:49:03.432Z,567.8461
2023-05-05T11:50:06.170Z,567.6923
2023-05-05T11:51:08.577Z,567.7692
2023-05-05T11:52:11.181Z,569.4615
2023-05-05T11:53:13.723Z,571.0769
2023-05-05T11:54:16.333Z,566.0000
2023-05-05T11:55:18.892Z,567.6923
2023-05-05T11:56:21.559Z,572.7692
2023-05-05T11:57:24.044Z,576.0769
2023-05-05T11:58:26.650Z,572.3077
2023-05-05T11:59:29.475Z,573.5385
2023-05-05T12:00:31.815Z,572.1539
2023-05-05T12:01:34.377Z,570.6923
2023-05-05T12:02:37.034Z,570.0000
2023-05-05T12:03:39.609Z,570.9231
2023-05-05T12:04:42.171Z,571.9231
2023-05-05T12:05:44.671Z,578.0000
2023-05-05T12:06:47.281Z,585.8461
2023-05-05T12:07:49.831Z,580.0000
2023-05-05T12:08:52.446Z,578.6923
2023-05-05T12:09:55.005Z,580.2308
2023-05-05T12:10:57.592Z,578.0000
2023-05-05T12:12:00.218Z,571.9231
2023-05-05T12:13:02.837Z,569.6923
2023-05-05T12:14:05.306Z,572.9231
2023-05-05T12:15:07.934Z,577.0769
2023-05-05T12:16:10.503Z,576.6923
2023-05-05T12:17:13.061Z,577.1539
2023-05-05T12:18:15.616Z,576.7692
2023-05-05T12:19:18.228Z,571.1539
2023-05-05T12:20:20.827Z,565.6923
2023-05-05T12:21:23.383Z,569.9231
2023-05-05T12:22:25.950Z,569.7692
2023-05-05T12:23:28.540Z,570.9231
2023-05-05T12:24:31.094Z,571.0000
2023-05-05T12:25:33.709Z,572.2308
2023-05-05T12:26:36.248Z,573.8461
2023-05-05T12:27:39.021Z,569.5385
2023-05-05T12:28:41.411Z,562.1539
2023-05-05T12:29:44.012Z,577.7692
2023-05-05T12:30:46.615Z,575.8461
2023-05-05T12:31:49.186Z,573.3846
2023-05-05T12:32:51.753Z,573.3846
2023-05-05T12:33:54.331Z,575.3846